sensor_id;sensor_type;location;lat;lon;timestamp;P1;durP1;ratioP1;P2;durP2;ratioP2
46222;SDS011;31943;51.410;7.564;2022-08-07T00:01:54;4.40;;;0.85;;
46222;SDS011;31943;51.410;7.564;2022-08-07T00:04:19;2.35;;;0.65;;
46222;SDS011;31943;51.410;7.564;2022-08-07T00:06:45;2.95;;;0.77;;
46222;SDS011;31943;51.410;7.564;2022-08-07T00:09:10;4.10;;;0.73;;
46222;SDS011;31943;51.410;7.564;2022-08-07T00:11:36;2.50;;;0.90;;
46222;SDS011;31943;51.410;7.564;2022-08-07T00:14:02;1.25;;;0.55;;
46222;SDS011;31943;51.410;7.564;2022-08-07T00:16:30;1.17;;;0.70;;
46222;SDS011;31943;51.410;7.564;2022-08-07T00:18:55;0.60;;;0.50;;
46222;SDS011;31943;51.410;7.564;2022-08-07T00:21:21;1.63;;;0.80;;
46222;SDS011;31943;51.410;7.564;2022-08-07T00:23:46;1.38;;;0.63;;
46222;SDS011;31943;51.410;7.564;2022-08-07T00:26:12;1.90;;;0.82;;
46222;SDS011;31943;51.410;7.564;2022-08-07T00:28:38;1.80;;;0.80;;
46222;SDS011;31943;51.410;7.564;2022-08-07T00:31:04;1.30;;;0.68;;
46222;SDS011;31943;51.410;7.564;2022-08-07T00:33:34;2.60;;;0.63;;
46222;SDS011;31943;51.410;7.564;2022-08-07T00:36:01;0.80;;;0.43;;
46222;SDS011;31943;51.410;7.564;2022-08-07T00:38:28;1.40;;;0.63;;
46222;SDS011;31943;51.410;7.564;2022-08-07T00:40:54;1.40;;;0.68;;
46222;SDS011;31943;51.410;7.564;2022-08-07T00:43:19;2.40;;;0.63;;
46222;SDS011;31943;51.410;7.564;2022-08-07T00:45:45;1.90;;;0.55;;
46222;SDS011;31943;51.410;7.564;2022-08-07T00:48:11;0.88;;;0.60;;
46222;SDS011;31943;51.410;7.564;2022-08-07T00:50:38;1.15;;;0.47;;
46222;SDS011;31943;51.410;7.564;2022-08-07T00:53:04;1.38;;;0.80;;
46222;SDS011;31943;51.410;7.564;2022-08-07T00:55:29;1.63;;;0.80;;
46222;SDS011;31943;51.410;7.564;2022-08-07T00:57:55;2.25;;;0.80;;
46222;SDS011;31943;51.410;7.564;2022-08-07T01:00:21;1.23;;;0.60;;
46222;SDS011;31943;51.410;7.564;2022-08-07T01:02:47;1.10;;;0.60;;
46222;SDS011;31943;51.410;7.564;2022-08-07T01:05:13;2.28;;;0.60;;
46222;SDS011;31943;51.410;7.564;2022-08-07T01:07:42;2.88;;;0.73;;
46222;SDS011;31943;51.410;7.564;2022-08-07T01:10:08;1.75;;;0.60;;
46222;SDS011;31943;51.410;7.564;2022-08-07T01:12:34;2.10;;;0.80;;
46222;SDS011;31943;51.410;7.564;2022-08-07T01:15:01;2.05;;;0.80;;
46222;SDS011;31943;51.410;7.564;2022-08-07T01:17:28;0.65;;;0.50;;
46222;SDS011;31943;51.410;7.564;2022-08-07T01:19:55;2.35;;;0.75;;
46222;SDS011;31943;51.410;7.564;2022-08-07T01:22:27;0.85;;;0.40;;
46222;SDS011;31943;51.410;7.564;2022-08-07T01:24:52;1.95;;;0.70;;
46222;SDS011;31943;51.410;7.564;2022-08-07T01:27:19;2.35;;;0.70;;
46222;SDS011;31943;51.410;7.564;2022-08-07T01:29:45;1.25;;;0.80;;
46222;SDS011;31943;51.410;7.564;2022-08-07T01:32:11;1.00;;;0.70;;
46222;SDS011;31943;51.410;7.564;2022-08-07T01:34:37;1.58;;;0.93;;
46222;SDS011;31943;51.410;7.564;2022-08-07T01:37:02;4.78;;;0.88;;
46222;SDS011;31943;51.410;7.564;2022-08-07T01:39:30;1.90;;;1.00;;
46222;SDS011;31943;51.410;7.564;2022-08-07T01:41:56;2.38;;;0.90;;
46222;SDS011;31943;51.410;7.564;2022-08-07T01:44:22;1.73;;;0.75;;
46222;SDS011;31943;51.410;7.564;2022-08-07T01:46:47;2.40;;;0.90;;
46222;SDS011;31943;51.410;7.564;2022-08-07T01:49:13;1.40;;;0.65;;
46222;SDS011;31943;51.410;7.564;2022-08-07T01:51:39;1.70;;;0.80;;
46222;SDS011;31943;51.410;7.564;2022-08-07T01:54:08;2.05;;;0.80;;
46222;SDS011;31943;51.410;7.564;2022-08-07T01:56:38;1.58;;;0.80;;
46222;SDS011;31943;51.410;7.564;2022-08-07T02:01:37;2.58;;;0.88;;
46222;SDS011;31943;51.410;7.564;2022-08-07T02:04:11;1.45;;;0.80;;
46222;SDS011;31943;51.410;7.564;2022-08-07T02:06:41;1.60;;;0.80;;
46222;SDS011;31943;51.410;7.564;2022-08-07T02:09:08;2.05;;;0.80;;
46222;SDS011;31943;51.410;7.564;2022-08-07T02:11:37;0.90;;;0.75;;
46222;SDS011;31943;51.410;7.564;2022-08-07T02:14:06;2.88;;;0.90;;
46222;SDS011;31943;51.410;7.564;2022-08-07T02:16:33;1.63;;;0.93;;
46222;SDS011;31943;51.410;7.564;2022-08-07T02:19:01;2.08;;;0.93;;
46222;SDS011;31943;51.410;7.564;2022-08-07T02:21:32;1.27;;;1.00;;
46222;SDS011;31943;51.410;7.564;2022-08-07T02:23:59;2.28;;;1.10;;
46222;SDS011;31943;51.410;7.564;2022-08-07T02:26:25;2.33;;;0.88;;
46222;SDS011;31943;51.410;7.564;2022-08-07T02:28:54;2.50;;;1.05;;
46222;SDS011;31943;51.410;7.564;2022-08-07T02:31:21;1.55;;;1.10;;
46222;SDS011;31943;51.410;7.564;2022-08-07T02:33:48;1.13;;;0.88;;
46222;SDS011;31943;51.410;7.564;2022-08-07T02:36:14;4.85;;;1.10;;
46222;SDS011;31943;51.410;7.564;2022-08-07T02:38:42;1.42;;;1.02;;
46222;SDS011;31943;51.410;7.564;2022-08-07T02:41:08;1.88;;;1.02;;
46222;SDS011;31943;51.410;7.564;2022-08-07T02:43:37;3.05;;;0.88;;
46222;SDS011;31943;51.410;7.564;2022-08-07T02:46:05;0.90;;;0.70;;
46222;SDS011;31943;51.410;7.564;2022-08-07T02:48:32;1.42;;;0.85;;
46222;SDS011;31943;51.410;7.564;2022-08-07T02:50:58;5.63;;;1.10;;
46222;SDS011;31943;51.410;7.564;2022-08-07T02:53:31;2.25;;;1.30;;
46222;SDS011;31943;51.410;7.564;2022-08-07T02:55:58;3.55;;;1.05;;
46222;SDS011;31943;51.410;7.564;2022-08-07T02:58:26;1.17;;;0.70;;
46222;SDS011;31943;51.410;7.564;2022-08-07T03:00:53;1.77;;;1.00;;
46222;SDS011;31943;51.410;7.564;2022-08-07T03:03:24;1.60;;;0.90;;
46222;SDS011;31943;51.410;7.564;2022-08-07T03:05:51;1.33;;;1.00;;
46222;SDS011;31943;51.410;7.564;2022-08-07T03:08:18;2.65;;;0.88;;
46222;SDS011;31943;51.410;7.564;2022-08-07T03:10:45;1.50;;;1.10;;
46222;SDS011;31943;51.410;7.564;2022-08-07T03:13:12;2.70;;;1.10;;
46222;SDS011;31943;51.410;7.564;2022-08-07T03:15:38;1.42;;;1.17;;
46222;SDS011;31943;51.410;7.564;2022-08-07T03:18:04;2.78;;;1.15;;
46222;SDS011;31943;51.410;7.564;2022-08-07T03:20:32;5.07;;;1.10;;
46222;SDS011;31943;51.410;7.564;2022-08-07T03:22:58;2.63;;;0.98;;
46222;SDS011;31943;51.410;7.564;2022-08-07T03:25:24;1.27;;;1.02;;
46222;SDS011;31943;51.410;7.564;2022-08-07T03:27:51;1.98;;;0.90;;
46222;SDS011;31943;51.410;7.564;2022-08-07T03:30:18;2.05;;;1.27;;
46222;SDS011;31943;51.410;7.564;2022-08-07T03:32:46;9.05;;;1.85;;
46222;SDS011;31943;51.410;7.564;2022-08-07T03:35:14;2.40;;;1.10;;
46222;SDS011;31943;51.410;7.564;2022-08-07T03:37:44;2.00;;;0.98;;
46222;SDS011;31943;51.410;7.564;2022-08-07T03:40:14;1.55;;;1.00;;
46222;SDS011;31943;51.410;7.564;2022-08-07T03:42:40;1.85;;;1.02;;
46222;SDS011;31943;51.410;7.564;2022-08-07T03:45:07;1.92;;;1.33;;
46222;SDS011;31943;51.410;7.564;2022-08-07T03:47:33;1.75;;;1.30;;
46222;SDS011;31943;51.410;7.564;2022-08-07T03:50:01;2.25;;;1.45;;
46222;SDS011;31943;51.410;7.564;2022-08-07T03:52:27;1.80;;;1.20;;
46222;SDS011;31943;51.410;7.564;2022-08-07T03:54:57;2.03;;;1.13;;
46222;SDS011;31943;51.410;7.564;2022-08-07T03:57:23;2.63;;;1.10;;
46222;SDS011;31943;51.410;7.564;2022-08-07T03:59:50;1.92;;;1.25;;
46222;SDS011;31943;51.410;7.564;2022-08-07T04:02:16;3.20;;;0.95;;
46222;SDS011;31943;51.410;7.564;2022-08-07T04:04:42;2.03;;;1.05;;
46222;SDS011;31943;51.410;7.564;2022-08-07T04:07:08;2.05;;;1.20;;
46222;SDS011;31943;51.410;7.564;2022-08-07T04:09:34;4.95;;;1.50;;
46222;SDS011;31943;51.410;7.564;2022-08-07T04:12:02;1.40;;;1.08;;
46222;SDS011;31943;51.410;7.564;2022-08-07T04:14:29;2.65;;;1.00;;
46222;SDS011;31943;51.410;7.564;2022-08-07T04:16:55;1.92;;;1.30;;
46222;SDS011;31943;51.410;7.564;2022-08-07T04:19:21;2.15;;;1.27;;
46222;SDS011;31943;51.410;7.564;2022-08-07T04:21:47;3.72;;;1.17;;
46222;SDS011;31943;51.410;7.564;2022-08-07T04:24:12;1.40;;;1.20;;
46222;SDS011;31943;51.410;7.564;2022-08-07T04:26:39;2.92;;;1.27;;
46222;SDS011;31943;51.410;7.564;2022-08-07T04:29:07;1.73;;;1.10;;
46222;SDS011;31943;51.410;7.564;2022-08-07T04:31:32;3.47;;;1.10;;
46222;SDS011;31943;51.410;7.564;2022-08-07T04:33:59;3.78;;;0.93;;
46222;SDS011;31943;51.410;7.564;2022-08-07T04:36:25;1.48;;;1.20;;
46222;SDS011;31943;51.410;7.564;2022-08-07T04:38:51;1.45;;;1.27;;
46222;SDS011;31943;51.410;7.564;2022-08-07T04:41:17;2.80;;;1.30;;
46222;SDS011;31943;51.410;7.564;2022-08-07T04:43:42;1.73;;;1.25;;
46222;SDS011;31943;51.410;7.564;2022-08-07T04:46:12;2.17;;;1.20;;
46222;SDS011;31943;51.410;7.564;2022-08-07T04:48:43;2.53;;;1.33;;
46222;SDS011;31943;51.410;7.564;2022-08-07T04:51:20;2.17;;;1.10;;
46222;SDS011;31943;51.410;7.564;2022-08-07T04:53:51;1.30;;;1.02;;
46222;SDS011;31943;51.410;7.564;2022-08-07T04:56:23;2.83;;;1.30;;
46222;SDS011;31943;51.410;7.564;2022-08-07T04:58:55;1.55;;;1.20;;
46222;SDS011;31943;51.410;7.564;2022-08-07T05:01:30;2.35;;;1.35;;
46222;SDS011;31943;51.410;7.564;2022-08-07T05:04:03;2.53;;;1.35;;
46222;SDS011;31943;51.410;7.564;2022-08-07T05:09:02;2.42;;;1.10;;
46222;SDS011;31943;51.410;7.564;2022-08-07T05:11:33;2.75;;;1.20;;
46222;SDS011;31943;51.410;7.564;2022-08-07T05:14:02;1.77;;;1.17;;
46222;SDS011;31943;51.410;7.564;2022-08-07T05:16:36;2.40;;;1.40;;
46222;SDS011;31943;51.410;7.564;2022-08-07T05:19:06;2.45;;;1.33;;
46222;SDS011;31943;51.410;7.564;2022-08-07T05:21:36;1.98;;;1.33;;
46222;SDS011;31943;51.410;7.564;2022-08-07T05:24:08;1.35;;;1.20;;
46222;SDS011;31943;51.410;7.564;2022-08-07T05:26:36;2.10;;;1.25;;
46222;SDS011;31943;51.410;7.564;2022-08-07T05:29:04;1.67;;;1.58;;
46222;SDS011;31943;51.410;7.564;2022-08-07T05:31:32;1.80;;;1.20;;
46222;SDS011;31943;51.410;7.564;2022-08-07T05:34:01;2.53;;;1.83;;
46222;SDS011;31943;51.410;7.564;2022-08-07T05:36:28;2.30;;;1.60;;
46222;SDS011;31943;51.410;7.564;2022-08-07T05:38:54;3.85;;;2.08;;
46222;SDS011;31943;51.410;7.564;2022-08-07T05:41:21;2.30;;;1.65;;
46222;SDS011;31943;51.410;7.564;2022-08-07T05:43:48;3.47;;;1.83;;
46222;SDS011;31943;51.410;7.564;2022-08-07T05:46:16;2.35;;;2.10;;
46222;SDS011;31943;51.410;7.564;2022-08-07T05:48:44;2.83;;;2.38;;
46222;SDS011;31943;51.410;7.564;2022-08-07T05:51:12;4.07;;;2.03;;
46222;SDS011;31943;51.410;7.564;2022-08-07T05:53:39;2.88;;;2.30;;
46222;SDS011;31943;51.410;7.564;2022-08-07T05:56:05;4.70;;;1.83;;
46222;SDS011;31943;51.410;7.564;2022-08-07T05:58:34;4.45;;;2.25;;
46222;SDS011;31943;51.410;7.564;2022-08-07T06:01:00;2.80;;;2.58;;
46222;SDS011;31943;51.410;7.564;2022-08-07T06:03:27;2.45;;;1.92;;
46222;SDS011;31943;51.410;7.564;2022-08-07T06:05:54;1.98;;;1.67;;
46222;SDS011;31943;51.410;7.564;2022-08-07T06:08:23;3.10;;;2.20;;
46222;SDS011;31943;51.410;7.564;2022-08-07T06:10:49;4.40;;;1.88;;
46222;SDS011;31943;51.410;7.564;2022-08-07T06:13:15;3.30;;;2.13;;
46222;SDS011;31943;51.410;7.564;2022-08-07T06:15:42;2.95;;;2.20;;
46222;SDS011;31943;51.410;7.564;2022-08-07T06:18:10;2.70;;;2.10;;
46222;SDS011;31943;51.410;7.564;2022-08-07T06:20:36;2.58;;;2.15;;
46222;SDS011;31943;51.410;7.564;2022-08-07T06:23:04;3.90;;;2.10;;
46222;SDS011;31943;51.410;7.564;2022-08-07T06:25:34;3.30;;;1.90;;
46222;SDS011;31943;51.410;7.564;2022-08-07T06:28:01;4.90;;;2.10;;
46222;SDS011;31943;51.410;7.564;2022-08-07T06:30:27;2.88;;;1.67;;
46222;SDS011;31943;51.410;7.564;2022-08-07T06:32:53;3.55;;;1.88;;
46222;SDS011;31943;51.410;7.564;2022-08-07T06:35:19;3.70;;;2.13;;
46222;SDS011;31943;51.410;7.564;2022-08-07T06:37:44;2.00;;;1.83;;
46222;SDS011;31943;51.410;7.564;2022-08-07T06:40:10;3.55;;;1.90;;
46222;SDS011;31943;51.410;7.564;2022-08-07T06:42:39;1.95;;;1.63;;
46222;SDS011;31943;51.410;7.564;2022-08-07T06:45:08;2.05;;;1.30;;
46222;SDS011;31943;51.410;7.564;2022-08-07T06:47:37;4.47;;;1.80;;
46222;SDS011;31943;51.410;7.564;2022-08-07T06:50:04;7.35;;;2.08;;
46222;SDS011;31943;51.410;7.564;2022-08-07T06:52:32;2.35;;;1.65;;
46222;SDS011;31943;51.410;7.564;2022-08-07T06:55:00;2.38;;;1.60;;
46222;SDS011;31943;51.410;7.564;2022-08-07T06:57:28;3.83;;;1.80;;
46222;SDS011;31943;51.410;7.564;2022-08-07T06:59:57;1.88;;;1.50;;
46222;SDS011;31943;51.410;7.564;2022-08-07T07:02:24;1.75;;;1.60;;
46222;SDS011;31943;51.410;7.564;2022-08-07T07:04:50;2.45;;;1.50;;
46222;SDS011;31943;51.410;7.564;2022-08-07T07:07:16;2.53;;;1.30;;
46222;SDS011;31943;51.410;7.564;2022-08-07T07:09:43;1.95;;;1.20;;
46222;SDS011;31943;51.410;7.564;2022-08-07T07:12:13;2.78;;;1.75;;
46222;SDS011;31943;51.410;7.564;2022-08-07T07:14:48;3.55;;;1.85;;
46222;SDS011;31943;51.410;7.564;2022-08-07T07:17:19;2.73;;;1.73;;
46222;SDS011;31943;51.410;7.564;2022-08-07T07:19:53;1.48;;;1.20;;
46222;SDS011;31943;51.410;7.564;2022-08-07T07:22:21;3.80;;;1.10;;
46222;SDS011;31943;51.410;7.564;2022-08-07T07:24:48;3.15;;;1.65;;
46222;SDS011;31943;51.410;7.564;2022-08-07T07:27:15;2.17;;;1.48;;
46222;SDS011;31943;51.410;7.564;2022-08-07T07:29:47;3.35;;;1.40;;
46222;SDS011;31943;51.410;7.564;2022-08-07T07:32:15;2.05;;;1.08;;
46222;SDS011;31943;51.410;7.564;2022-08-07T07:34:46;2.20;;;0.90;;
46222;SDS011;31943;51.410;7.564;2022-08-07T07:37:15;1.15;;;0.75;;
46222;SDS011;31943;51.410;7.564;2022-08-07T07:39:41;2.10;;;1.10;;
46222;SDS011;31943;51.410;7.564;2022-08-07T07:42:09;2.28;;;0.88;;
46222;SDS011;31943;51.410;7.564;2022-08-07T07:44:37;1.85;;;0.93;;
46222;SDS011;31943;51.410;7.564;2022-08-07T07:47:06;1.92;;;0.70;;
46222;SDS011;31943;51.410;7.564;2022-08-07T07:49:35;2.33;;;1.05;;
46222;SDS011;31943;51.410;7.564;2022-08-07T07:52:04;1.58;;;0.75;;
46222;SDS011;31943;51.410;7.564;2022-08-07T07:54:32;2.10;;;0.73;;
46222;SDS011;31943;51.410;7.564;2022-08-07T07:56:59;1.95;;;0.90;;
46222;SDS011;31943;51.410;7.564;2022-08-07T07:59:26;1.17;;;0.68;;
46222;SDS011;31943;51.410;7.564;2022-08-07T08:01:54;0.85;;;0.60;;
46222;SDS011;31943;51.410;7.564;2022-08-07T08:04:22;1.98;;;0.90;;
46222;SDS011;31943;51.410;7.564;2022-08-07T08:06:52;2.40;;;0.80;;
46222;SDS011;31943;51.410;7.564;2022-08-07T08:09:22;3.40;;;0.93;;
46222;SDS011;31943;51.410;7.564;2022-08-07T08:14:15;1.88;;;0.70;;
46222;SDS011;31943;51.410;7.564;2022-08-07T08:16:41;1.75;;;0.98;;
46222;SDS011;31943;51.410;7.564;2022-08-07T08:19:09;2.30;;;0.70;;
46222;SDS011;31943;51.410;7.564;2022-08-07T08:21:40;2.63;;;0.90;;
46222;SDS011;31943;51.410;7.564;2022-08-07T08:24:08;1.75;;;0.68;;
46222;SDS011;31943;51.410;7.564;2022-08-07T08:26:36;1.50;;;0.90;;
46222;SDS011;31943;51.410;7.564;2022-08-07T08:29:03;2.17;;;1.02;;
46222;SDS011;31943;51.410;7.564;2022-08-07T08:31:30;1.30;;;0.80;;
46222;SDS011;31943;51.410;7.564;2022-08-07T08:33:58;1.88;;;0.80;;
46222;SDS011;31943;51.410;7.564;2022-08-07T08:36:28;2.90;;;0.98;;
46222;SDS011;31943;51.410;7.564;2022-08-07T08:38:56;1.45;;;0.60;;
46222;SDS011;31943;51.410;7.564;2022-08-07T08:41:26;1.63;;;0.50;;
46222;SDS011;31943;51.410;7.564;2022-08-07T08:44:02;1.90;;;0.70;;
46222;SDS011;31943;51.410;7.564;2022-08-07T08:46:37;3.15;;;0.60;;
46222;SDS011;31943;51.410;7.564;2022-08-07T08:49:09;0.60;;;0.43;;
46222;SDS011;31943;51.410;7.564;2022-08-07T08:51:52;0.60;;;0.40;;
46222;SDS011;31943;51.410;7.564;2022-08-07T08:54:22;3.25;;;0.47;;
46222;SDS011;31943;51.410;7.564;2022-08-07T08:56:52;1.85;;;0.30;;
46222;SDS011;31943;51.410;7.564;2022-08-07T08:59:26;2.15;;;0.30;;
46222;SDS011;31943;51.410;7.564;2022-08-07T09:01:59;0.85;;;0.25;;
46222;SDS011;31943;51.410;7.564;2022-08-07T09:04:36;2.60;;;0.40;;
46222;SDS011;31943;51.410;7.564;2022-08-07T09:07:10;0.55;;;0.20;;
46222;SDS011;31943;51.410;7.564;2022-08-07T09:09:43;2.92;;;0.50;;
46222;SDS011;31943;51.410;7.564;2022-08-07T09:12:23;2.10;;;0.47;;
46222;SDS011;31943;51.410;7.564;2022-08-07T09:18:02;0.38;;;0.20;;
46222;SDS011;31943;51.410;7.564;2022-08-07T09:20:41;2.08;;;0.30;;
46222;SDS011;31943;51.410;7.564;2022-08-07T09:23:11;1.13;;;0.30;;
46222;SDS011;31943;51.410;7.564;2022-08-07T09:25:48;0.65;;;0.30;;
46222;SDS011;31943;51.410;7.564;2022-08-07T09:28:23;1.27;;;0.40;;
46222;SDS011;31943;51.410;7.564;2022-08-07T09:30:58;0.75;;;0.20;;
46222;SDS011;31943;51.410;7.564;2022-08-07T09:33:34;0.80;;;0.25;;
46222;SDS011;31943;51.410;7.564;2022-08-07T09:36:13;0.73;;;0.30;;
46222;SDS011;31943;51.410;7.564;2022-08-07T09:38:44;1.23;;;0.30;;
46222;SDS011;31943;51.410;7.564;2022-08-07T09:41:15;0.52;;;0.30;;
46222;SDS011;31943;51.410;7.564;2022-08-07T09:43:52;0.70;;;0.25;;
46222;SDS011;31943;51.410;7.564;2022-08-07T09:46:30;1.05;;;0.30;;
46222;SDS011;31943;51.410;7.564;2022-08-07T09:52:05;1.92;;;0.30;;
46222;SDS011;31943;51.410;7.564;2022-08-07T09:54:46;1.10;;;0.30;;
46222;SDS011;31943;51.410;7.564;2022-08-07T10:00:17;0.57;;;0.30;;
46222;SDS011;31943;51.410;7.564;2022-08-07T10:06:09;1.00;;;0.30;;
46222;SDS011;31943;51.410;7.564;2022-08-07T10:11:53;1.10;;;0.40;;
46222;SDS011;31943;51.410;7.564;2022-08-07T10:20:10;3.72;;;0.63;;
46222;SDS011;31943;51.410;7.564;2022-08-07T10:22:47;1.40;;;0.40;;
46222;SDS011;31943;51.410;7.564;2022-08-07T10:25:35;1.42;;;0.50;;
46222;SDS011;31943;51.410;7.564;2022-08-07T10:28:13;2.03;;;0.20;;
46222;SDS011;31943;51.410;7.564;2022-08-07T10:30:57;4.20;;;0.32;;
46222;SDS011;31943;51.410;7.564;2022-08-07T10:33:40;2.42;;;0.28;;
46222;SDS011;31943;51.410;7.564;2022-08-07T10:36:16;0.68;;;0.32;;
46222;SDS011;31943;51.410;7.564;2022-08-07T10:38:50;0.20;;;0.20;;
46222;SDS011;31943;51.410;7.564;2022-08-07T10:41:24;0.60;;;0.20;;
46222;SDS011;31943;51.410;7.564;2022-08-07T10:44:02;1.15;;;0.30;;
46222;SDS011;31943;51.410;7.564;2022-08-07T10:46:37;1.20;;;0.25;;
46222;SDS011;31943;51.410;7.564;2022-08-07T10:49:07;0.57;;;0.20;;
46222;SDS011;31943;51.410;7.564;2022-08-07T10:51:43;0.82;;;0.30;;
46222;SDS011;31943;51.410;7.564;2022-08-07T10:54:20;1.40;;;0.45;;
46222;SDS011;31943;51.410;7.564;2022-08-07T10:56:57;0.10;;;0.10;;
46222;SDS011;31943;51.410;7.564;2022-08-07T10:59:48;1.08;;;0.40;;
46222;SDS011;31943;51.410;7.564;2022-08-07T11:02:25;1.95;;;0.43;;
46222;SDS011;31943;51.410;7.564;2022-08-07T11:04:58;0.40;;;0.30;;
46222;SDS011;31943;51.410;7.564;2022-08-07T11:07:37;1.52;;;0.30;;
46222;SDS011;31943;51.410;7.564;2022-08-07T11:10:16;3.47;;;0.27;;
46222;SDS011;31943;51.410;7.564;2022-08-07T11:12:45;2.53;;;0.40;;
46222;SDS011;31943;51.410;7.564;2022-08-07T11:15:16;2.92;;;0.50;;
46222;SDS011;31943;51.410;7.564;2022-08-07T11:17:48;2.45;;;0.43;;
46222;SDS011;31943;51.410;7.564;2022-08-07T11:20:18;0.98;;;0.40;;
46222;SDS011;31943;51.410;7.564;2022-08-07T11:22:50;1.63;;;0.30;;
46222;SDS011;31943;51.410;7.564;2022-08-07T11:25:24;2.20;;;0.40;;
46222;SDS011;31943;51.410;7.564;2022-08-07T11:28:00;1.58;;;0.30;;
46222;SDS011;31943;51.410;7.564;2022-08-07T11:30:44;1.20;;;0.60;;
46222;SDS011;31943;51.410;7.564;2022-08-07T11:33:20;1.85;;;0.47;;
46222;SDS011;31943;51.410;7.564;2022-08-07T11:35:53;2.00;;;0.43;;
46222;SDS011;31943;51.410;7.564;2022-08-07T11:38:32;0.38;;;0.30;;
46222;SDS011;31943;51.410;7.564;2022-08-07T11:41:04;0.20;;;0.20;;
46222;SDS011;31943;51.410;7.564;2022-08-07T11:43:36;0.75;;;0.25;;
46222;SDS011;31943;51.410;7.564;2022-08-07T11:46:21;3.22;;;0.40;;
46222;SDS011;31943;51.410;7.564;2022-08-07T11:49:03;1.58;;;0.32;;
46222;SDS011;31943;51.410;7.564;2022-08-07T11:51:47;0.40;;;0.25;;
46222;SDS011;31943;51.410;7.564;2022-08-07T11:54:44;2.58;;;0.40;;
46222;SDS011;31943;51.410;7.564;2022-08-07T11:57:27;1.10;;;0.38;;
46222;SDS011;31943;51.410;7.564;2022-08-07T12:00:03;2.53;;;0.40;;
46222;SDS011;31943;51.410;7.564;2022-08-07T12:02:44;1.02;;;0.20;;
46222;SDS011;31943;51.410;7.564;2022-08-07T12:05:24;1.30;;;0.25;;
46222;SDS011;31943;51.410;7.564;2022-08-07T12:07:54;1.10;;;0.40;;
46222;SDS011;31943;51.410;7.564;2022-08-07T12:12:54;0.68;;;0.28;;
46222;SDS011;31943;51.410;7.564;2022-08-07T12:15:25;1.63;;;0.35;;
46222;SDS011;31943;51.410;7.564;2022-08-07T12:17:55;0.80;;;0.32;;
46222;SDS011;31943;51.410;7.564;2022-08-07T12:20:27;0.73;;;0.30;;
46222;SDS011;31943;51.410;7.564;2022-08-07T12:23:00;0.40;;;0.28;;
46222;SDS011;31943;51.410;7.564;2022-08-07T12:25:49;3.97;;;0.47;;
46222;SDS011;31943;51.410;7.564;2022-08-07T12:28:21;1.02;;;0.20;;
46222;SDS011;31943;51.410;7.564;2022-08-07T12:30:52;1.05;;;0.52;;
46222;SDS011;31943;51.410;7.564;2022-08-07T12:33:20;0.70;;;0.25;;
46222;SDS011;31943;51.410;7.564;2022-08-07T12:35:50;0.45;;;0.30;;
46222;SDS011;31943;51.410;7.564;2022-08-07T12:38:17;1.40;;;0.20;;
46222;SDS011;31943;51.410;7.564;2022-08-07T12:40:45;1.10;;;0.38;;
46222;SDS011;31943;51.410;7.564;2022-08-07T12:43:15;0.88;;;0.20;;
46222;SDS011;31943;51.410;7.564;2022-08-07T12:45:46;0.85;;;0.30;;
46222;SDS011;31943;51.410;7.564;2022-08-07T12:48:22;1.90;;;0.30;;
46222;SDS011;31943;51.410;7.564;2022-08-07T12:51:00;2.50;;;0.40;;
46222;SDS011;31943;51.410;7.564;2022-08-07T12:53:34;0.90;;;0.30;;
46222;SDS011;31943;51.410;7.564;2022-08-07T12:56:08;0.73;;;0.25;;
46222;SDS011;31943;51.410;7.564;2022-08-07T12:58:41;1.15;;;0.30;;
46222;SDS011;31943;51.410;7.564;2022-08-07T13:01:16;1.00;;;0.35;;
46222;SDS011;31943;51.410;7.564;2022-08-07T13:03:56;1.23;;;0.40;;
46222;SDS011;31943;51.410;7.564;2022-08-07T13:06:33;1.15;;;0.30;;
46222;SDS011;31943;51.410;7.564;2022-08-07T13:09:13;1.20;;;0.22;;
46222;SDS011;31943;51.410;7.564;2022-08-07T13:11:49;1.50;;;0.30;;
46222;SDS011;31943;51.410;7.564;2022-08-07T13:14:23;1.40;;;0.20;;
46222;SDS011;31943;51.410;7.564;2022-08-07T13:17:02;1.10;;;0.32;;
46222;SDS011;31943;51.410;7.564;2022-08-07T13:19:33;1.98;;;0.30;;
46222;SDS011;31943;51.410;7.564;2022-08-07T13:22:09;1.45;;;0.38;;
46222;SDS011;31943;51.410;7.564;2022-08-07T13:24:39;0.70;;;0.25;;
46222;SDS011;31943;51.410;7.564;2022-08-07T13:27:12;0.50;;;0.35;;
46222;SDS011;31943;51.410;7.564;2022-08-07T13:29:42;0.82;;;0.40;;
46222;SDS011;31943;51.410;7.564;2022-08-07T13:32:14;1.77;;;0.22;;
46222;SDS011;31943;51.410;7.564;2022-08-07T13:34:45;1.58;;;0.38;;
46222;SDS011;31943;51.410;7.564;2022-08-07T13:37:20;0.45;;;0.40;;
46222;SDS011;31943;51.410;7.564;2022-08-07T13:39:55;0.57;;;0.40;;
46222;SDS011;31943;51.410;7.564;2022-08-07T13:42:29;0.35;;;0.30;;
46222;SDS011;31943;51.410;7.564;2022-08-07T13:44:56;0.80;;;0.30;;
46222;SDS011;31943;51.410;7.564;2022-08-07T13:47:25;0.55;;;0.20;;
46222;SDS011;31943;51.410;7.564;2022-08-07T13:49:53;2.67;;;0.20;;
46222;SDS011;31943;51.410;7.564;2022-08-07T13:52:23;1.23;;;0.40;;
46222;SDS011;31943;51.410;7.564;2022-08-07T13:54:50;1.73;;;0.63;;
46222;SDS011;31943;51.410;7.564;2022-08-07T13:57:20;0.30;;;0.30;;
46222;SDS011;31943;51.410;7.564;2022-08-07T13:59:52;0.90;;;0.35;;
46222;SDS011;31943;51.410;7.564;2022-08-07T14:02:20;1.65;;;0.40;;
46222;SDS011;31943;51.410;7.564;2022-08-07T14:04:49;3.20;;;0.20;;
46222;SDS011;31943;51.410;7.564;2022-08-07T14:07:19;0.85;;;0.35;;
46222;SDS011;31943;51.410;7.564;2022-08-07T14:09:46;0.80;;;0.30;;
46222;SDS011;31943;51.410;7.564;2022-08-07T14:12:18;0.50;;;0.20;;
46222;SDS011;31943;51.410;7.564;2022-08-07T14:14:50;0.35;;;0.20;;
46222;SDS011;31943;51.410;7.564;2022-08-07T14:17:21;3.60;;;0.85;;
46222;SDS011;31943;51.410;7.564;2022-08-07T14:19:49;1.27;;;0.30;;
46222;SDS011;31943;51.410;7.564;2022-08-07T14:22:17;1.55;;;0.20;;
46222;SDS011;31943;51.410;7.564;2022-08-07T14:24:48;0.75;;;0.30;;
46222;SDS011;31943;51.410;7.564;2022-08-07T14:27:18;1.63;;;0.50;;
46222;SDS011;31943;51.410;7.564;2022-08-07T14:29:55;0.77;;;0.20;;
46222;SDS011;31943;51.410;7.564;2022-08-07T14:32:25;0.98;;;0.30;;
46222;SDS011;31943;51.410;7.564;2022-08-07T14:34:52;2.03;;;0.30;;
46222;SDS011;31943;51.410;7.564;2022-08-07T14:37:19;1.73;;;1.00;;
46222;SDS011;31943;51.410;7.564;2022-08-07T14:39:46;2.30;;;0.90;;
46222;SDS011;31943;51.410;7.564;2022-08-07T14:42:13;0.70;;;0.40;;
46222;SDS011;31943;51.410;7.564;2022-08-07T14:44:46;0.75;;;0.43;;
46222;SDS011;31943;51.410;7.564;2022-08-07T14:47:18;0.60;;;0.20;;
46222;SDS011;31943;51.410;7.564;2022-08-07T14:49:45;1.05;;;0.40;;
46222;SDS011;31943;51.410;7.564;2022-08-07T14:52:12;0.45;;;0.20;;
46222;SDS011;31943;51.410;7.564;2022-08-07T14:54:38;1.08;;;0.30;;
46222;SDS011;31943;51.410;7.564;2022-08-07T14:57:08;1.55;;;0.30;;
46222;SDS011;31943;51.410;7.564;2022-08-07T14:59:36;1.73;;;0.63;;
46222;SDS011;31943;51.410;7.564;2022-08-07T15:02:09;1.02;;;0.50;;
46222;SDS011;31943;51.410;7.564;2022-08-07T15:04:39;0.68;;;0.20;;
46222;SDS011;31943;51.410;7.564;2022-08-07T15:07:06;1.02;;;0.40;;
46222;SDS011;31943;51.410;7.564;2022-08-07T15:09:36;1.17;;;0.40;;
46222;SDS011;31943;51.410;7.564;2022-08-07T15:12:06;0.30;;;0.20;;
46222;SDS011;31943;51.410;7.564;2022-08-07T15:14:34;2.35;;;0.40;;
46222;SDS011;31943;51.410;7.564;2022-08-07T15:17:03;2.30;;;0.60;;
46222;SDS011;31943;51.410;7.564;2022-08-07T15:19:44;0.90;;;0.43;;
46222;SDS011;31943;51.410;7.564;2022-08-07T15:22:13;0.38;;;0.20;;
46222;SDS011;31943;51.410;7.564;2022-08-07T15:24:39;1.13;;;0.35;;
46222;SDS011;31943;51.410;7.564;2022-08-07T15:27:11;0.38;;;0.20;;
46222;SDS011;31943;51.410;7.564;2022-08-07T15:29:40;0.68;;;0.35;;
46222;SDS011;31943;51.410;7.564;2022-08-07T15:32:08;0.80;;;0.35;;
46222;SDS011;31943;51.410;7.564;2022-08-07T15:34:35;0.60;;;0.30;;
46222;SDS011;31943;51.410;7.564;2022-08-07T15:37:05;0.63;;;0.25;;